createdAt,value
2017-08-10T00:00:01.552Z,21.46
2017-08-10T00:00:42.431Z,21.33
2017-08-10T00:01:23.319Z,21.27
2017-08-10T00:02:04.228Z,21.37
2017-08-10T00:02:45.114Z,21.39
2017-08-10T00:03:26.008Z,21.45
2017-08-10T00:04:06.899Z,21.33
2017-08-10T00:04:47.802Z,21.25
2017-08-10T00:05:28.690Z,21.3
2017-08-10T00:06:09.579Z,21.32
2017-08-10T00:06:50.462Z,21.18
2017-08-10T00:07:31.357Z,21.27
2017-08-10T00:08:12.249Z,21.32
2017-08-10T00:08:53.153Z,21.33
2017-08-10T00:09:34.036Z,21.45
2017-08-10T00:10:14.928Z,21.42
2017-08-10T00:10:55.827Z,21.22
2017-08-10T00:11:36.709Z,21.21
2017-08-10T00:12:17.599Z,21.21
2017-08-10T00:12:58.486Z,21.22
2017-08-10T00:13:39.369Z,21.32
2017-08-10T00:14:20.271Z,21.39
2017-08-10T00:15:01.161Z,21.3
2017-08-10T00:15:42.047Z,21.22
2017-08-10T00:16:22.958Z,21.21
2017-08-10T00:17:03.834Z,21.25
2017-08-10T00:17:44.718Z,21.39
2017-08-10T00:18:25.616Z,21.3
2017-08-10T00:19:06.512Z,21.3
2017-08-10T00:19:47.395Z,21.2
2017-08-10T00:20:28.302Z,21.14
2017-08-10T00:21:09.193Z,21.27
2017-08-10T00:21:50.072Z,21.12
2017-08-10T00:22:30.976Z,20.96
2017-08-10T00:23:11.877Z,21.05
2017-08-10T00:23:52.768Z,21.02
2017-08-10T00:24:33.659Z,21.15
2017-08-10T00:25:14.540Z,21.24
2017-08-10T00:25:55.429Z,21.18
2017-08-10T00:26:36.325Z,21.24
2017-08-10T00:27:17.214Z,21.09
2017-08-10T00:27:58.113Z,21.18
2017-08-10T00:28:39.004Z,21.29
2017-08-10T00:29:19.893Z,21.12
2017-08-10T00:30:00.784Z,21.14
2017-08-10T00:30:41.675Z,21.17
2017-08-10T00:31:22.561Z,21.12
2017-08-10T00:32:03.452Z,21.15
2017-08-10T00:32:44.347Z,21.35
2017-08-10T00:33:25.238Z,21.18
2017-08-10T00:34:06.127Z,21.24
2017-08-10T00:34:47.032Z,21.21
2017-08-10T00:35:27.941Z,21.25
2017-08-10T00:36:08.815Z,21.39
2017-08-10T00:36:49.703Z,21.39
2017-08-10T00:37:30.612Z,21.35
2017-08-10T00:38:11.493Z,21.2
2017-08-10T00:38:52.380Z,21.25
2017-08-10T00:39:33.290Z,21.21
2017-08-10T00:40:14.170Z,21.14
2017-08-10T00:40:55.065Z,21.24
2017-08-10T00:41:35.952Z,21.33
2017-08-10T00:42:16.846Z,21.43
2017-08-10T00:42:57.734Z,21.29
2017-08-10T00:43:38.619Z,21.39
2017-08-10T00:44:19.500Z,21.33
2017-08-10T00:45:00.410Z,21.15
2017-08-10T00:45:41.300Z,21.11
2017-08-10T00:46:22.181Z,21.17
2017-08-10T00:47:03.089Z,21.12
2017-08-10T00:47:43.984Z,21.22
2017-08-10T00:48:24.865Z,21.24
2017-08-10T00:49:05.763Z,21.27
2017-08-10T00:49:46.655Z,21.22
2017-08-10T00:50:27.533Z,21.24
2017-08-10T00:51:08.419Z,21.33
2017-08-10T00:51:49.311Z,21.35
2017-08-10T00:52:30.200Z,21.39
2017-08-10T00:53:11.085Z,21.22
2017-08-10T00:53:52.000Z,21.46
2017-08-10T00:54:32.896Z,21.4
2017-08-10T00:55:13.814Z,21.45
2017-08-10T00:55:54.706Z,21.37
2017-08-10T00:56:35.609Z,21.42
2017-08-10T00:57:16.506Z,21.43
2017-08-10T00:57:57.397Z,21.51
2017-08-10T00:58:38.301Z,21.48
2017-08-10T00:59:19.194Z,21.52
2017-08-10T01:00:00.093Z,21.32
2017-08-10T01:00:40.985Z,21.45
2017-08-10T01:01:21.873Z,21.66
2017-08-10T01:02:02.779Z,21.57
2017-08-10T01:02:43.674Z,21.73
2017-08-10T01:03:24.569Z,21.66
2017-08-10T01:04:05.489Z,21.72
2017-08-10T01:04:46.358Z,21.67
2017-08-10T01:05:27.240Z,21.69
2017-08-10T01:06:08.133Z,21.75
2017-08-10T01:06:49.030Z,21.72
2017-08-10T01:07:29.927Z,21.72
2017-08-10T01:08:10.813Z,21.8
2017-08-10T01:08:51.693Z,21.76
2017-08-10T01:09:32.570Z,21.82
2017-08-10T01:10:13.466Z,21.79
2017-08-10T01:10:54.365Z,21.75
2017-08-10T01:11:35.258Z,21.5
2017-08-10T01:12:16.153Z,21.61
2017-08-10T01:12:57.053Z,21.62
2017-08-10T01:13:37.935Z,21.67
2017-08-10T01:14:18.831Z,21.55
2017-08-10T01:14:59.731Z,21.42
2017-08-10T01:15:40.623Z,21.6
2017-08-10T01:16:21.529Z,21.67
2017-08-10T01:17:02.426Z,21.66
2017-08-10T01:17:43.321Z,21.43
2017-08-10T01:18:24.213Z,21.43
2017-08-10T01:19:05.107Z,21.58
2017-08-10T01:19:45.994Z,21.66
2017-08-10T01:20:26.906Z,21.75
2017-08-10T01:21:07.787Z,21.69
2017-08-10T01:21:48.671Z,21.83
2017-08-10T01:22:29.573Z,21.76
2017-08-10T01:23:10.461Z,21.51
2017-08-10T01:23:51.351Z,21.62
2017-08-10T01:24:32.248Z,21.67
2017-08-10T01:25:13.136Z,21.72
2017-08-10T01:25:54.030Z,21.8
2017-08-10T01:26:34.931Z,21.73
2017-08-10T01:27:15.819Z,21.85
2017-08-10T01:27:56.721Z,21.93
2017-08-10T01:28:37.605Z,21.82
2017-08-10T01:29:18.511Z,21.82
2017-08-10T01:29:59.401Z,21.93
2017-08-10T01:30:40.303Z,21.98
2017-08-10T01:31:21.200Z,22.11
2017-08-10T01:32:02.100Z,22.11
2017-08-10T01:32:42.985Z,22.2
2017-08-10T01:33:23.877Z,22.15
2017-08-10T01:34:04.772Z,22.28
2017-08-10T01:34:45.670Z,22.2
2017-08-10T01:35:26.571Z,22.23
2017-08-10T01:36:07.462Z,22.22
2017-08-10T01:36:48.361Z,22.17
2017-08-10T01:37:29.276Z,22
2017-08-10T01:38:10.164Z,21.85
2017-08-10T01:38:51.065Z,21.93
2017-08-10T01:39:31.979Z,21.95
2017-08-10T01:40:12.874Z,21.95
2017-08-10T01:40:53.769Z,21.95
2017-08-10T01:41:34.652Z,21.91
2017-08-10T01:42:15.548Z,21.7
2017-08-10T01:42:56.442Z,21.85
2017-08-10T01:43:37.334Z,21.79
2017-08-10T01:44:18.233Z,21.82
2017-08-10T01:44:59.119Z,21.88
2017-08-10T01:45:40.012Z,21.92
2017-08-10T01:46:20.907Z,21.92
2017-08-10T01:47:01.792Z,21.89
2017-08-10T01:47:42.684Z,21.83
2017-08-10T01:48:23.611Z,21.88
2017-08-10T01:49:04.525Z,21.83
2017-08-10T01:49:45.413Z,21.75
2017-08-10T01:50:26.321Z,21.64
2017-08-10T01:51:07.227Z,21.48
2017-08-10T01:51:48.107Z,21.46
2017-08-10T01:52:28.992Z,21.4
2017-08-10T01:53:09.898Z,21.61
2017-08-10T01:53:50.785Z,21.66
2017-08-10T01:54:31.685Z,21.7
2017-08-10T01:55:12.593Z,21.69
2017-08-10T01:55:53.457Z,21.77
2017-08-10T01:56:34.349Z,21.69
2017-08-10T01:57:15.249Z,21.7
2017-08-10T01:57:56.143Z,21.73
2017-08-10T01:58:37.039Z,21.73
2017-08-10T01:59:17.957Z,21.69
2017-08-10T01:59:58.853Z,21.72
2017-08-10T02:00:39.767Z,21.75
2017-08-10T02:01:20.688Z,21.67
2017-08-10T02:02:01.581Z,21.72
2017-08-10T02:02:42.474Z,21.69
2017-08-10T02:03:23.382Z,21.75
2017-08-10T02:04:04.290Z,21.69
2017-08-10T02:04:45.177Z,21.75
2017-08-10T02:05:26.071Z,21.72
2017-08-10T02:06:06.961Z,21.62
2017-08-10T02:06:47.850Z,21.6
2017-08-10T02:07:28.753Z,21.67
2017-08-10T02:08:09.643Z,21.57
2017-08-10T02:08:50.546Z,21.48
2017-08-10T02:09:31.432Z,21.14
2017-08-10T02:10:12.335Z,21.02
2017-08-10T02:10:53.230Z,20.99
2017-08-10T02:11:34.121Z,20.96
2017-08-10T02:12:15.015Z,20.77
2017-08-10T02:12:55.916Z,20.82
2017-08-10T02:13:36.802Z,20.6
2017-08-10T02:14:17.699Z,20.58
2017-08-10T02:14:58.590Z,20.62
2017-08-10T02:15:39.489Z,20.65
2017-08-10T02:16:20.396Z,20.56
2017-08-10T02:17:01.273Z,20.62
2017-08-10T02:17:42.162Z,20.55
2017-08-10T02:18:23.049Z,20.51
2017-08-10T02:19:03.942Z,20.51
2017-08-10T02:19:44.851Z,20.41
2017-08-10T02:20:25.730Z,20.51
2017-08-10T02:21:06.631Z,20.55
2017-08-10T02:21:47.518Z,20.62
2017-08-10T02:22:28.429Z,20.59
2017-08-10T02:23:09.320Z,20.59
2017-08-10T02:23:50.220Z,20.59
2017-08-10T02:24:31.112Z,20.52
2017-08-10T02:25:12.006Z,20.29
2017-08-10T02:25:52.946Z,20.28
2017-08-10T02:26:33.844Z,20.06
2017-08-10T02:27:14.750Z,20
2017-08-10T02:27:55.628Z,19.96
2017-08-10T02:28:36.537Z,19.99
2017-08-10T02:29:17.434Z,19.89
2017-08-10T02:29:58.322Z,19.92
2017-08-10T02:30:39.220Z,19.99
2017-08-10T02:31:20.098Z,20.09
2017-08-10T02:32:00.979Z,20.07
2017-08-10T02:32:41.885Z,20.24
2017-08-10T02:33:22.798Z,20.26
2017-08-10T02:34:03.699Z,20.09
2017-08-10T02:34:44.594Z,19.86
2017-08-10T02:35:25.482Z,19.58
2017-08-10T02:36:06.382Z,19.56
2017-08-10T02:36:47.276Z,19.59
2017-08-10T02:37:28.166Z,19.56
2017-08-10T02:38:09.072Z,19.82
2017-08-10T02:38:49.967Z,19.89
2017-08-10T02:39:30.867Z,19.76
2017-08-10T02:40:11.755Z,19.77
2017-08-10T02:40:52.645Z,19.67
2017-08-10T02:41:33.531Z,19.86
2017-08-10T02:42:14.439Z,19.84
2017-08-10T02:42:55.324Z,19.73
2017-08-10T02:43:36.211Z,19.51
2017-08-10T02:44:17.124Z,19.52
2017-08-10T02:44:58.025Z,19.7
2017-08-10T02:45:38.967Z,19.82
2017-08-10T02:46:19.860Z,19.84
2017-08-10T02:47:00.753Z,19.79
2017-08-10T02:47:41.642Z,19.94
2017-08-10T02:48:22.546Z,19.73
2017-08-10T02:49:03.449Z,19.82
2017-08-10T02:49:44.337Z,19.85
2017-08-10T02:50:25.243Z,19.77
2017-08-10T02:51:06.142Z,19.82
2017-08-10T02:51:47.025Z,19.82
2017-08-10T02:52:27.918Z,19.82
2017-08-10T02:53:08.814Z,19.77
2017-08-10T02:53:49.710Z,19.51
2017-08-10T02:54:30.595Z,19.44
2017-08-10T02:55:11.468Z,19.64
2017-08-10T02:55:52.407Z,19.81
2017-08-10T02:56:33.275Z,19.73
2017-08-10T02:57:14.239Z,19.55
2017-08-10T02:57:55.131Z,19.63
2017-08-10T02:58:36.017Z,19.56
2017-08-10T02:59:16.913Z,19.47
2017-08-10T02:59:57.809Z,19.54
2017-08-10T03:00:38.701Z,19.54
2017-08-10T03:01:19.606Z,19.54
2017-08-10T03:02:00.501Z,19.54
2017-08-10T03:02:41.396Z,19.44
2017-08-10T03:03:22.283Z,19.49
2017-08-10T03:04:03.176Z,19.49
2017-08-10T03:04:44.074Z,19.64
2017-08-10T03:05:24.965Z,19.54
2017-08-10T03:06:05.861Z,19.54
2017-08-10T03:06:46.747Z,19.58
2017-08-10T03:07:27.635Z,19.27
2017-08-10T03:08:08.536Z,19.07
2017-08-10T03:08:49.429Z,18.89
2017-08-10T03:09:30.337Z,18.86
2017-08-10T03:10:11.222Z,18.92
2017-08-10T03:10:52.114Z,19.09
2017-08-10T03:11:33.015Z,19.08
2017-08-10T03:12:13.911Z,19.14
2017-08-10T03:12:54.807Z,19.19
2017-08-10T03:13:35.705Z,19.26
2017-08-10T03:14:16.610Z,18.95
2017-08-10T03:14:57.484Z,19.27
2017-08-10T03:15:38.384Z,19.18
2017-08-10T03:16:19.277Z,19.19
2017-08-10T03:17:00.168Z,19.07
2017-08-10T03:17:41.061Z,18.96
2017-08-10T03:18:21.953Z,18.8
2017-08-10T03:19:02.845Z,18.86
2017-08-10T03:19:43.743Z,18.96
2017-08-10T03:20:24.622Z,18.86
2017-08-10T03:21:05.517Z,19.09
2017-08-10T03:21:46.406Z,18.95
2017-08-10T03:22:27.312Z,18.93
2017-08-10T03:23:08.207Z,18.83
2017-08-10T03:23:49.141Z,18.75
2017-08-10T03:24:30.028Z,18.75
2017-08-10T03:25:10.919Z,18.84
2017-08-10T03:25:51.798Z,18.73
2017-08-10T03:26:32.686Z,18.88
2017-08-10T03:27:13.623Z,18.78
2017-08-10T03:27:54.481Z,18.84
2017-08-10T03:28:35.360Z,18.78
2017-08-10T03:29:16.248Z,18.89
2017-08-10T03:29:57.141Z,18.83
2017-08-10T03:30:38.025Z,18.88
2017-08-10T03:31:18.934Z,18.95
2017-08-10T03:31:59.815Z,19.16
2017-08-10T03:32:40.702Z,18.92
2017-08-10T03:33:21.587Z,18.92
2017-08-10T03:34:02.479Z,19.09
2017-08-10T03:34:43.358Z,18.71
2017-08-10T03:35:24.241Z,18.73
2017-08-10T03:36:05.142Z,18.84
2017-08-10T03:36:46.037Z,18.99
2017-08-10T03:37:26.946Z,18.88
2017-08-10T03:38:07.836Z,18.78
2017-08-10T03:38:48.727Z,18.86
2017-08-10T03:39:29.628Z,18.81
2017-08-10T03:40:10.527Z,18.93
2017-08-10T03:40:51.421Z,19.04
2017-08-10T03:41:32.311Z,19.07
2017-08-10T03:42:13.195Z,19.08
2017-08-10T03:42:54.093Z,18.89
2017-08-10T03:43:34.982Z,19.07
2017-08-10T03:44:15.871Z,19.02
2017-08-10T03:44:56.761Z,19.15
2017-08-10T03:45:37.650Z,19.04
2017-08-10T03:46:18.545Z,18.93
2017-08-10T03:46:59.434Z,19.11
2017-08-10T03:47:40.329Z,19.14
2017-08-10T03:48:21.222Z,19.14
2017-08-10T03:49:02.110Z,19.07
2017-08-10T03:49:42.996Z,19.14
2017-08-10T03:50:23.898Z,19.3
2017-08-10T03:51:04.785Z,19.21
2017-08-10T03:51:45.669Z,19.29
2017-08-10T03:52:26.562Z,19.22
2017-08-10T03:53:07.460Z,18.88
2017-08-10T03:53:48.373Z,19
2017-08-10T03:54:29.268Z,19.08
2017-08-10T03:55:10.161Z,19.31
2017-08-10T03:55:51.059Z,19.18
2017-08-10T03:56:31.998Z,19.4
2017-08-10T03:57:12.889Z,19.19
2017-08-10T03:57:53.776Z,19.15
2017-08-10T03:58:34.676Z,18.89
2017-08-10T03:59:15.568Z,19.34
2017-08-10T03:59:56.452Z,19.29
2017-08-10T04:00:37.339Z,19.3
2017-08-10T04:01:18.236Z,19.21
2017-08-10T04:01:59.118Z,19.27
2017-08-10T04:02:40.013Z,19.36
2017-08-10T04:03:20.912Z,19.27
2017-08-10T04:04:01.794Z,19.09
2017-08-10T04:04:42.684Z,19.07
2017-08-10T04:05:23.586Z,18.95
2017-08-10T04:06:04.472Z,19.08
2017-08-10T04:06:45.361Z,19.07
2017-08-10T04:07:26.250Z,18.81
2017-08-10T04:08:07.148Z,18.89
2017-08-10T04:08:48.033Z,18.95
2017-08-10T04:09:28.943Z,18.99
2017-08-10T04:10:09.823Z,19.08
2017-08-10T04:10:50.719Z,19.3
2017-08-10T04:11:31.617Z,19.47
2017-08-10T04:12:12.503Z,19.56
2017-08-10T04:12:53.406Z,19.69
2017-08-10T04:13:34.296Z,20.1
2017-08-10T04:14:15.182Z,20.1
2017-08-10T04:14:56.094Z,19.66
2017-08-10T04:15:36.988Z,19.82
2017-08-10T04:16:17.885Z,19.7
2017-08-10T04:16:58.776Z,19.63
2017-08-10T04:17:39.654Z,19.59
2017-08-10T04:18:20.573Z,19.82
2017-08-10T04:19:01.463Z,19.82
2017-08-10T04:19:42.352Z,19.36
2017-08-10T04:20:23.243Z,19.51
2017-08-10T04:21:04.136Z,19.71
2017-08-10T04:21:45.020Z,19.67
2017-08-10T04:22:25.910Z,19.64
2017-08-10T04:23:06.815Z,19.77
2017-08-10T04:23:47.689Z,19.49
2017-08-10T04:24:28.582Z,19.67
2017-08-10T04:25:09.470Z,19.37
2017-08-10T04:25:50.355Z,19.36
2017-08-10T04:26:31.237Z,19.22
2017-08-10T04:27:12.140Z,19.49
2017-08-10T04:27:53.027Z,19.69
2017-08-10T04:28:33.911Z,19.59
2017-08-10T04:29:14.792Z,19.73
2017-08-10T04:29:55.695Z,19.73
2017-08-10T04:30:36.588Z,19.69
2017-08-10T04:31:17.483Z,19.44
2017-08-10T04:31:58.376Z,19.14
2017-08-10T04:32:39.258Z,19.36
2017-08-10T04:33:20.152Z,19.44
2017-08-10T04:34:01.038Z,19.3
2017-08-10T04:34:41.920Z,19.26
2017-08-10T04:35:22.805Z,19.29
2017-08-10T04:36:03.692Z,19.16
2017-08-10T04:36:44.591Z,19.21
2017-08-10T04:37:25.466Z,19
2017-08-10T04:38:06.370Z,19.09
2017-08-10T04:38:47.258Z,19.09
2017-08-10T04:39:28.143Z,18.93
2017-08-10T04:40:09.046Z,18.96
2017-08-10T04:40:49.932Z,19.21
2017-08-10T04:41:30.808Z,18.84
2017-08-10T04:42:11.698Z,18.65
2017-08-10T04:42:52.627Z,18.78
2017-08-10T04:43:33.488Z,18.77
2017-08-10T04:44:14.373Z,18.52
2017-08-10T04:44:55.265Z,18.38
2017-08-10T04:45:37.528Z,18.59
2017-08-10T04:46:18.781Z,18.78
2017-08-10T04:46:59.770Z,18.75
2017-08-10T04:47:40.664Z,18.59
2017-08-10T04:48:21.545Z,18.71
2017-08-10T04:49:02.435Z,18.98
2017-08-10T04:49:43.335Z,18.86
2017-08-10T04:50:24.226Z,18.89
2017-08-10T04:51:05.124Z,19.02
2017-08-10T04:51:46.035Z,18.78
2017-08-10T04:52:26.916Z,18.68
2017-08-10T04:53:07.810Z,18.56
2017-08-10T04:53:48.700Z,18.73
2017-08-10T04:54:29.578Z,18.59
2017-08-10T04:55:10.480Z,18.52
2017-08-10T04:55:51.388Z,18.43
2017-08-10T04:56:32.271Z,18.49
2017-08-10T04:57:13.163Z,18.25
2017-08-10T04:57:54.080Z,18.35
2017-08-10T04:58:34.993Z,18.07
2017-08-10T04:59:15.882Z,18.19
2017-08-10T04:59:56.789Z,18.25
2017-08-10T05:00:37.675Z,18.29
2017-08-10T05:01:18.562Z,18.29
2017-08-10T05:01:59.465Z,18.18
2017-08-10T05:02:40.353Z,18.41
2017-08-10T05:03:21.246Z,18.58
2017-08-10T05:04:02.127Z,18.55
2017-08-10T05:04:43.028Z,18.75
2017-08-10T05:05:23.921Z,18.8
2017-08-10T05:06:04.820Z,18.78
2017-08-10T05:06:45.707Z,18.75
2017-08-10T05:07:26.592Z,18.78
2017-08-10T05:08:07.489Z,19
2017-08-10T05:08:48.381Z,19.15
2017-08-10T05:09:29.259Z,19.15
2017-08-10T05:10:10.150Z,19.14
2017-08-10T05:10:51.057Z,19.22
2017-08-10T05:11:31.937Z,19.33
2017-08-10T05:12:12.820Z,19.29
2017-08-10T05:12:53.721Z,19.26
2017-08-10T05:13:34.613Z,19.22
2017-08-10T05:14:15.496Z,19.27
2017-08-10T05:14:56.407Z,19.19
2017-08-10T05:15:37.294Z,19.47
2017-08-10T05:16:18.190Z,19.37
2017-08-10T05:16:59.134Z,19.3
2017-08-10T05:17:40.043Z,19.09
2017-08-10T05:18:20.933Z,19.29
2017-08-10T05:19:01.854Z,19.29
2017-08-10T05:19:42.724Z,19.26
2017-08-10T05:20:23.609Z,19.54
2017-08-10T05:21:04.514Z,19.44
2017-08-10T05:21:45.418Z,19.52
2017-08-10T05:22:26.312Z,19.22
2017-08-10T05:23:07.207Z,19.41
2017-08-10T05:23:48.093Z,19.27
2017-08-10T05:24:28.978Z,19.14
2017-08-10T05:25:09.867Z,19.18
2017-08-10T05:25:50.773Z,19.16
2017-08-10T05:26:31.654Z,19.02
2017-08-10T05:27:12.540Z,19.04
2017-08-10T05:27:53.894Z,19.18
2017-08-10T05:28:34.795Z,19.07
2017-08-10T05:29:15.678Z,18.93
2017-08-10T05:29:56.585Z,18.9
2017-08-10T05:30:37.491Z,18.8
2017-08-10T05:31:18.374Z,18.65
2017-08-10T05:31:59.282Z,18.73
2017-08-10T05:32:40.202Z,18.83
2017-08-10T05:33:21.098Z,18.81
2017-08-10T05:34:01.974Z,18.86
2017-08-10T05:34:42.871Z,18.78
2017-08-10T05:35:23.763Z,18.77
2017-08-10T05:36:04.660Z,18.63
2017-08-10T05:36:45.545Z,18.6
2017-08-10T05:37:26.478Z,18.65
2017-08-10T05:38:07.350Z,18.68
2017-08-10T05:38:48.248Z,18.62
2017-08-10T05:39:29.153Z,18.66
2017-08-10T05:40:10.042Z,18.77
2017-08-10T05:40:50.950Z,18.78
2017-08-10T05:41:31.833Z,18.78
2017-08-10T05:42:12.722Z,18.84
2017-08-10T05:42:53.622Z,19
2017-08-10T05:43:34.558Z,18.89
2017-08-10T05:44:15.459Z,18.89
2017-08-10T05:44:56.353Z,19.07
2017-08-10T05:45:37.234Z,19.07
2017-08-10T05:46:18.125Z,19.09
2017-08-10T05:46:59.015Z,19.02
2017-08-10T05:47:39.912Z,19.15
2017-08-10T05:48:20.795Z,19.21
2017-08-10T05:49:01.699Z,19.27
2017-08-10T05:49:42.588Z,19.21
2017-08-10T05:50:23.479Z,19.36
2017-08-10T05:51:04.375Z,19.45
2017-08-10T05:51:45.275Z,19.58
2017-08-10T05:52:26.164Z,19.67
2017-08-10T05:53:07.066Z,19.62
2017-08-10T05:53:47.954Z,19.82
2017-08-10T05:54:28.846Z,19.81
2017-08-10T05:55:09.731Z,19.71
2017-08-10T05:55:50.630Z,19.67
2017-08-10T05:56:31.524Z,19.71
2017-08-10T05:57:12.424Z,19.7
2017-08-10T05:57:53.315Z,19.58
2017-08-10T05:58:34.205Z,19.56
2017-08-10T05:59:15.095Z,19.82
2017-08-10T05:59:55.988Z,19.84
2017-08-10T06:00:36.883Z,19.91
2017-08-10T06:01:17.772Z,19.7
2017-08-10T06:01:58.666Z,19.82
2017-08-10T06:02:39.568Z,19.89
2017-08-10T06:03:20.458Z,19.89
2017-08-10T06:04:01.349Z,20.02
2017-08-10T06:04:42.246Z,20.04
2017-08-10T06:05:23.139Z,20.1
2017-08-10T06:06:04.038Z,20.25
2017-08-10T06:06:44.928Z,20.19
2017-08-10T06:07:25.831Z,20.22
2017-08-10T06:08:06.726Z,20.04
2017-08-10T06:08:47.606Z,20.09
2017-08-10T06:09:28.497Z,20.19
2017-08-10T06:10:09.403Z,20.1
2017-08-10T06:10:50.289Z,20.13
2017-08-10T06:11:31.192Z,20.09
2017-08-10T06:12:12.081Z,20.11
2017-08-10T06:12:52.964Z,20.11
2017-08-10T06:13:33.872Z,20.24
2017-08-10T06:14:14.759Z,20.14
2017-08-10T06:14:55.658Z,20.22
2017-08-10T06:15:36.555Z,20.22
2017-08-10T06:16:17.450Z,20.21
2017-08-10T06:16:58.347Z,20.1
2017-08-10T06:17:39.235Z,20.06
2017-08-10T06:18:20.120Z,20.21
2017-08-10T06:19:01.037Z,20.43
2017-08-10T06:19:41.938Z,20.48
2017-08-10T06:20:22.835Z,20.55
2017-08-10T06:21:03.725Z,20.59
2017-08-10T06:21:44.611Z,20.62
2017-08-10T06:22:25.487Z,20.77
2017-08-10T06:23:06.375Z,20.85
2017-08-10T06:23:47.276Z,20.69
2017-08-10T06:24:28.219Z,20.75
2017-08-10T06:25:09.105Z,20.92
2017-08-10T06:25:50.011Z,21
2017-08-10T06:26:30.903Z,20.92
2017-08-10T06:27:11.793Z,20.85
2017-08-10T06:27:52.691Z,20.87
2017-08-10T06:28:33.596Z,20.85
2017-08-10T06:29:14.485Z,20.85
2017-08-10T06:29:55.377Z,20.99
2017-08-10T06:30:36.282Z,20.93
2017-08-10T06:31:17.159Z,20.88
2017-08-10T06:31:58.069Z,20.88
2017-08-10T06:32:38.953Z,20.81
2017-08-10T06:33:19.856Z,20.84
2017-08-10T06:34:00.742Z,20.58
2017-08-10T06:34:41.629Z,20.77
2017-08-10T06:35:22.535Z,20.65
2017-08-10T06:36:03.422Z,20.72
2017-08-10T06:36:44.314Z,20.99
2017-08-10T06:37:25.213Z,20.96
2017-08-10T06:38:06.100Z,21
2017-08-10T06:38:46.982Z,21.14
2017-08-10T06:39:27.885Z,21.24
2017-08-10T06:40:08.777Z,21.32
2017-08-10T06:40:49.658Z,21.39
2017-08-10T06:41:30.558Z,21.66
2017-08-10T06:42:11.500Z,21.8
2017-08-10T06:42:52.395Z,21.91
2017-08-10T06:43:33.294Z,22.13
2017-08-10T06:44:14.195Z,22.17
2017-08-10T06:44:55.085Z,22.1
2017-08-10T06:45:35.995Z,21.64
2017-08-10T06:46:16.902Z,21.58
2017-08-10T06:46:57.797Z,21.85
2017-08-10T06:47:38.696Z,21.93
2017-08-10T06:48:19.593Z,21.66
2017-08-10T06:49:00.487Z,21.45
2017-08-10T06:49:41.394Z,21.52
2017-08-10T06:50:22.355Z,21.43
2017-08-10T06:51:03.263Z,21.42
2017-08-10T06:51:44.150Z,21.51
2017-08-10T06:52:25.053Z,21.43
2017-08-10T06:53:05.941Z,21.76
2017-08-10T06:53:46.849Z,21.73
2017-08-10T06:54:27.732Z,21.83
2017-08-10T06:55:08.633Z,21.73
2017-08-10T06:55:49.529Z,21.39
2017-08-10T06:56:30.429Z,21.06
2017-08-10T06:57:11.325Z,20.96
2017-08-10T06:57:52.233Z,20.99
2017-08-10T06:58:33.119Z,21.05
2017-08-10T06:59:14.011Z,21.25
2017-08-10T06:59:54.937Z,21.24
2017-08-10T07:00:35.815Z,21.39
2017-08-10T07:01:16.710Z,21.18
2017-08-10T07:01:57.600Z,21.42
2017-08-10T07:02:38.483Z,21.46
2017-08-10T07:03:19.394Z,21.45
2017-08-10T07:04:00.280Z,21.42
2017-08-10T07:04:41.165Z,21.58
2017-08-10T07:05:22.055Z,21.67
2017-08-10T07:06:02.957Z,21.58
2017-08-10T07:06:43.846Z,21.6
2017-08-10T07:07:24.736Z,21.45
2017-08-10T07:08:05.638Z,21.46
2017-08-10T07:08:46.539Z,21.66
2017-08-10T07:09:27.441Z,21.64
2017-08-10T07:10:08.338Z,21.54
2017-08-10T07:10:49.238Z,21.6
2017-08-10T07:11:30.134Z,21.42
2017-08-10T07:12:11.035Z,21.51
2017-08-10T07:12:51.948Z,21.48
2017-08-10T07:13:32.850Z,21.15
2017-08-10T07:14:13.738Z,21.06
2017-08-10T07:14:54.642Z,21.29
2017-08-10T07:15:35.531Z,21.15
2017-08-10T07:16:16.437Z,21.29
2017-08-10T07:16:57.341Z,21.22
2017-08-10T07:17:38.238Z,21.39
2017-08-10T07:18:19.136Z,21.43
2017-08-10T07:19:00.022Z,21.64
2017-08-10T07:19:40.903Z,21.57
2017-08-10T07:20:21.828Z,21.6
2017-08-10T07:21:02.723Z,21.76
2017-08-10T07:21:43.606Z,21.72
2017-08-10T07:22:24.515Z,21.45
2017-08-10T07:23:05.396Z,21.33
2017-08-10T07:23:46.291Z,21.35
2017-08-10T07:24:27.169Z,21.43
2017-08-10T07:25:08.075Z,21.3
2017-08-10T07:25:49.013Z,21.22
2017-08-10T07:26:29.919Z,21.15
2017-08-10T07:27:10.796Z,21.2
2017-08-10T07:27:51.685Z,21.17
2017-08-10T07:28:32.583Z,21.18
2017-08-10T07:29:13.477Z,21.58
2017-08-10T07:29:54.386Z,22.17
2017-08-10T07:30:35.290Z,22.36
2017-08-10T07:31:16.185Z,22.26
2017-08-10T07:31:57.103Z,21.93
2017-08-10T07:32:38.080Z,22.32
2017-08-10T07:33:18.988Z,22.68
2017-08-10T07:33:59.892Z,22.29
2017-08-10T07:34:40.796Z,21.95
2017-08-10T07:35:21.702Z,21.98
2017-08-10T07:36:02.599Z,21.95
2017-08-10T07:36:43.494Z,22.17
2017-08-10T07:37:24.390Z,22.44
2017-08-10T07:38:05.344Z,22.68
2017-08-10T07:38:46.265Z,22.69
2017-08-10T07:39:27.164Z,22.91
2017-08-10T07:40:08.072Z,22.87
2017-08-10T07:40:48.974Z,22.69
2017-08-10T07:41:29.874Z,22.96
2017-08-10T07:42:10.781Z,22.59
2017-08-10T07:42:51.679Z,22.5
2017-08-10T07:43:32.588Z,22.63
2017-08-10T07:44:13.492Z,22.7
2017-08-10T07:44:54.395Z,23.09
2017-08-10T07:45:35.299Z,23.55
2017-08-10T07:46:16.200Z,23.51
2017-08-10T07:46:57.105Z,23.88
2017-08-10T07:47:37.999Z,24.24
2017-08-10T07:48:18.906Z,24.2
2017-08-10T07:48:59.814Z,24.03
2017-08-10T07:49:40.771Z,23.71
2017-08-10T07:50:21.786Z,23.65
2017-08-10T07:51:02.692Z,23.81
2017-08-10T07:51:43.658Z,23.56
2017-08-10T07:52:24.566Z,23.81
2017-08-10T07:53:05.467Z,23.63
2017-08-10T07:53:46.355Z,23.47
2017-08-10T07:54:27.265Z,23.28
2017-08-10T07:55:08.178Z,23.54
2017-08-10T07:55:49.070Z,23.76
2017-08-10T07:56:29.964Z,23.81
2017-08-10T07:57:10.873Z,23.39
2017-08-10T07:57:51.786Z,22.83
2017-08-10T07:58:32.675Z,22.87
2017-08-10T07:59:13.577Z,22.99
2017-08-10T07:59:54.482Z,22.99
2017-08-10T08:00:35.390Z,23
2017-08-10T08:01:16.289Z,23.06
2017-08-10T08:01:57.191Z,22.98
2017-08-10T08:02:38.130Z,23
2017-08-10T08:03:19.052Z,23.44
2017-08-10T08:03:59.941Z,23.65
2017-08-10T08:04:40.846Z,23.4
2017-08-10T08:05:21.749Z,23.44
2017-08-10T08:06:02.644Z,23.68
2017-08-10T08:06:43.546Z,23.93
2017-08-10T08:07:24.436Z,23.55
2017-08-10T08:09:02.864Z,23.71
2017-08-10T08:09:43.754Z,23.68
2017-08-10T08:10:24.654Z,23.68
2017-08-10T08:11:05.539Z,23.43
2017-08-10T08:11:46.421Z,23.54
2017-08-10T08:12:27.320Z,23.76
2017-08-10T08:13:08.221Z,23.91
2017-08-10T08:13:49.120Z,23.98
2017-08-10T08:14:30.017Z,24.06
2017-08-10T08:15:10.907Z,24.01
2017-08-10T08:15:51.803Z,24.26
2017-08-10T08:16:32.709Z,24.3
2017-08-10T08:17:13.598Z,24.48
2017-08-10T08:17:54.501Z,23.81
2017-08-10T08:18:35.402Z,23.36
2017-08-10T08:19:16.308Z,23.51
2017-08-10T08:19:57.216Z,23.86
2017-08-10T08:20:38.113Z,23.58
2017-08-10T08:21:19.023Z,23.92
2017-08-10T08:21:59.926Z,24.28
2017-08-10T08:22:40.839Z,24.45
2017-08-10T08:23:21.728Z,24.5
2017-08-10T08:24:02.628Z,24.14
2017-08-10T08:24:43.556Z,23.81
2017-08-10T08:25:24.451Z,23.81
2017-08-10T08:26:05.339Z,23.58
2017-08-10T08:26:46.243Z,23.46
2017-08-10T08:27:27.145Z,23.56
2017-08-10T08:28:08.050Z,23.58
2017-08-10T08:28:48.953Z,23.73
2017-08-10T08:29:29.852Z,23.98
2017-08-10T08:30:10.752Z,23.95
2017-08-10T08:30:51.658Z,23.58
2017-08-10T08:31:32.557Z,23.31
2017-08-10T08:32:13.447Z,23.65
2017-08-10T08:32:54.343Z,24.14
2017-08-10T08:33:35.246Z,24.28
2017-08-10T08:34:16.152Z,24.3
2017-08-10T08:34:57.056Z,24.45
2017-08-10T08:35:37.948Z,24.57
2017-08-10T08:36:18.856Z,24.6
2017-08-10T08:36:59.756Z,24.74
2017-08-10T08:37:40.643Z,24.48
2017-08-10T08:38:21.539Z,24.45
2017-08-10T08:39:02.462Z,24.38
2017-08-10T08:39:43.347Z,24.42
2017-08-10T08:40:24.253Z,24.61
2017-08-10T08:41:05.150Z,24.68
2017-08-10T08:41:46.053Z,24.42
2017-08-10T08:42:26.945Z,24.26
2017-08-10T08:43:07.848Z,24.05
2017-08-10T08:43:48.752Z,24.26
2017-08-10T08:44:29.640Z,23.68
2017-08-10T08:45:10.549Z,23.61
2017-08-10T08:45:51.453Z,23.63
2017-08-10T08:46:32.356Z,23.88
2017-08-10T08:47:13.255Z,24.18
2017-08-10T08:47:54.155Z,24.39
2017-08-10T08:48:35.059Z,24.68
2017-08-10T08:49:15.948Z,24.57